Time;durP1;ratioP1;P1;durP2;ratioP2;P2;SDS_P1;SDS_P2;PMS_P1;PMS_P2;Temp;Humidity;BMP_temperature;BMP_pressure;BME280_temperature;BME280_humidity;BME280_pressure;Samples;Min_cycle;Max_cycle;Signal;HPM_P1;HPM_P2
2021/03/31 00:02:20;;;;;;;4.72;2.45;;;0.80;51.70;;;;;;4363068;32;20061;-59
2021/03/31 00:04:46;;;;;;;2.60;1.90;;;0.90;51.10;;;;;;4377109;32;20066;-59
2021/03/31 00:07:12;;;;;;;3.90;2.20;;;1.00;50.20;;;;;;4335540;32;20079;-59
2021/03/31 00:09:39;;;;;;;3.17;2.15;;;1.00;49.40;;;;;;4363025;32;20081;-59
2021/03/31 00:12:09;;;;;;;4.20;1.98;;;1.10;49.40;;;;;;4338493;32;20097;-58
2021/03/31 00:14:36;;;;;;;3.47;2.00;;;1.10;49.00;;;;;;4336540;32;20456;-60
2021/03/31 00:17:03;;;;;;;3.40;2.20;;;1.00;49.70;;;;;;4350618;32;20074;-59
2021/03/31 00:19:29;;;;;;;3.75;2.37;;;0.90;49.90;;;;;;4347922;32;20078;-60
2021/03/31 00:21:55;;;;;;;5.03;2.30;;;0.80;50.20;;;;;;4355354;32;20136;-59
2021/03/31 00:24:21;;;;;;;5.37;2.10;;;0.80;51.80;;;;;;4350665;32;20089;-59
2021/03/31 00:26:48;;;;;;;2.75;1.90;;;0.70;51.00;;;;;;4362414;32;20539;-59
2021/03/31 00:29:14;;;;;;;3.37;2.10;;;0.70;51.50;;;;;;4323451;32;20050;-59
2021/03/31 00:31:40;;;;;;;4.57;2.33;;;0.80;51.00;;;;;;4365708;32;20094;-59
2021/03/31 00:34:06;;;;;;;4.37;2.12;;;0.70;51.10;;;;;;4362739;32;20070;-60
2021/03/31 00:36:33;;;;;;;3.25;2.12;;;0.70;50.80;;;;;;4362610;32;20082;-59
2021/03/31 00:38:59;;;;;;;3.80;2.35;;;0.70;50.80;;;;;;4350639;32;20123;-60
2021/03/31 00:41:25;;;;;;;4.35;2.42;;;0.80;50.90;;;;;;4362465;32;20507;-59
2021/03/31 00:43:51;;;;;;;4.70;2.12;;;0.80;50.80;;;;;;4362578;32;20505;-59
2021/03/31 00:46:17;;;;;;;4.07;2.30;;;0.80;50.60;;;;;;4362751;32;20093;-60
2021/03/31 00:48:43;;;;;;;3.97;2.20;;;0.80;50.70;;;;;;4350506;32;20092;-59
2021/03/31 00:51:09;;;;;;;4.32;1.95;;;0.80;50.20;;;;;;4337670;32;20575;-62
2021/03/31 00:53:39;;;;;;;5.90;2.40;;;0.90;50.50;;;;;;4335078;32;20138;-60
2021/03/31 00:56:06;;;;;;;2.55;2.22;;;0.80;50.20;;;;;;4350513;32;20069;-59
2021/03/31 00:58:32;;;;;;;2.58;1.80;;;0.80;50.60;;;;;;4337707;32;20092;-59
2021/03/31 01:00:58;;;;;;;4.60;2.20;;;0.70;50.40;;;;;;4338679;32;20499;-59
2021/03/31 01:03:25;;;;;;;3.78;2.10;;;0.60;51.30;;;;;;4364593;32;20066;-60
2021/03/31 01:05:51;;;;;;;3.97;2.40;;;0.60;51.40;;;;;;4343239;32;20077;-61
2021/03/31 01:08:17;;;;;;;4.22;2.25;;;0.60;51.60;;;;;;4351754;32;20070;-59
2021/03/31 01:10:48;;;;;;;5.95;2.42;;;0.50;52.10;;;;;;4349226;32;20062;-59
2021/03/31 01:13:47;;;;;;;3.53;2.50;;;0.40;52.10;;;;;;4336340;32;20062;-60
2021/03/31 01:16:46;;;;;;;8.68;3.60;;;0.40;52.40;;;;;;4364100;32;20541;-59
2021/03/31 01:19:59;;;;;;;3.35;2.40;;;0.40;52.40;;;;;;4365720;32;20176;-58
2021/03/31 01:23:01;;;;;;;5.45;2.33;;;0.50;51.80;;;;;;4331766;32;20457;-61
2021/03/31 01:25:47;;;;;;;4.82;2.53;;;0.40;52.10;;;;;;4347930;32;20086;-59
2021/03/31 01:29:02;;;;;;;4.10;2.28;;;0.40;51.90;;;;;;4318095;32;20070;-59
2021/03/31 01:31:45;;;;;;;3.97;2.10;;;0.50;51.50;;;;;;4327775;32;20475;-64
2021/03/31 01:34:22;;;;;;;3.53;2.15;;;0.50;51.20;;;;;;4330710;32;20121;-59
2021/03/31 01:36:50;;;;;;;3.72;2.15;;;0.40;51.30;;;;;;4361369;32;20071;-60
2021/03/31 01:39:16;;;;;;;4.12;2.50;;;0.50;50.50;;;;;;4337697;32;20081;-59
2021/03/31 01:41:42;;;;;;;4.97;2.60;;;0.50;50.90;;;;;;4349516;32;20062;-61
2021/03/31 01:44:10;;;;;;;2.83;2.05;;;0.30;51.60;;;;;;4337429;32;20098;-59
2021/03/31 01:46:38;;;;;;;6.05;2.42;;;0.30;51.60;;;;;;4337701;32;20158;-60
2021/03/31 01:49:04;;;;;;;6.80;2.47;;;0.40;50.90;;;;;;4337559;32;20068;-61
2021/03/31 01:51:31;;;;;;;4.32;2.45;;;0.30;51.30;;;;;;4322235;32;20113;-61
2021/03/31 01:53:58;;;;;;;3.75;2.25;;;0.30;52.10;;;;;;4349448;32;20448;-60
2021/03/31 01:56:26;;;;;;;4.45;2.35;;;0.20;52.10;;;;;;4348624;32;20101;-61
2021/03/31 01:58:53;;;;;;;4.87;2.20;;;0.20;52.40;;;;;;4325289;32;20077;-59
2021/03/31 02:01:19;;;;;;;7.50;2.90;;;0.10;52.90;;;;;;4337245;32;20070;-60
2021/03/31 02:03:46;;;;;;;5.25;2.60;;;0.10;53.30;;;;;;4324770;32;20085;-59
2021/03/31 02:06:13;;;;;;;4.40;2.30;;;0.00;53.60;;;;;;4337256;32;20157;-60
2021/03/31 02:08:42;;;;;;;7.00;2.78;;;0.00;53.90;;;;;;4350004;32;20516;-60
2021/03/31 02:11:09;;;;;;;6.28;2.67;;;-0.10;54.10;;;;;;4346849;32;20075;-59
2021/03/31 02:13:35;;;;;;;6.82;2.80;;;-0.10;54.70;;;;;;4324799;32;20129;-59
2021/03/31 02:16:02;;;;;;;7.22;2.65;;;-0.10;55.00;;;;;;4325087;32;20072;-60
2021/03/31 02:18:30;;;;;;;6.60;2.90;;;-0.10;54.70;;;;;;4324652;32;20070;-59
2021/03/31 02:20:57;;;;;;;3.72;2.58;;;-0.20;55.00;;;;;;4324985;32;20063;-60
2021/03/31 02:23:23;;;;;;;6.47;2.45;;;-0.10;54.60;;;;;;4324198;32;20078;-62
2021/03/31 02:25:50;;;;;;;10.50;2.87;;;-0.20;54.90;;;;;;4327133;32;20078;-59
2021/03/31 02:28:16;;;;;;;4.57;2.40;;;-0.30;55.50;;;;;;4326358;32;20630;-60
2021/03/31 02:30:42;;;;;;;3.47;2.25;;;-0.30;55.20;;;;;;4343359;32;20094;-58
2021/03/31 02:33:11;;;;;;;5.03;2.53;;;-0.40;55.80;;;;;;4340112;32;20059;-60
2021/03/31 02:35:39;;;;;;;5.35;2.78;;;-0.30;55.80;;;;;;4337518;32;20152;-60
2021/03/31 02:38:07;;;;;;;4.00;2.10;;;-0.40;55.80;;;;;;4331930;32;20105;-59
2021/03/31 02:40:35;;;;;;;3.47;2.00;;;-0.40;56.30;;;;;;4331850;32;20504;-60
2021/03/31 02:43:02;;;;;;;8.13;2.97;;;-0.40;56.40;;;;;;4336850;32;20096;-59
2021/03/31 02:45:29;;;;;;;6.40;2.72;;;-0.30;56.20;;;;;;4339307;32;20122;-59
2021/03/31 02:47:56;;;;;;;4.62;2.37;;;-0.40;56.10;;;;;;4327380;32;20102;-59
2021/03/31 02:50:24;;;;;;;6.55;2.33;;;-0.30;56.20;;;;;;4339632;32;20094;-61
2021/03/31 02:52:51;;;;;;;3.67;2.40;;;-0.40;56.00;;;;;;4336362;32;20055;-59
2021/03/31 02:55:18;;;;;;;7.68;2.42;;;-0.30;56.00;;;;;;4336093;32;20082;-60
2021/03/31 02:57:44;;;;;;;6.43;2.50;;;-0.40;56.30;;;;;;4329382;32;20150;-60
2021/03/31 03:00:11;;;;;;;8.38;2.40;;;-0.30;56.10;;;;;;4339361;32;20069;-61
2021/03/31 03:02:38;;;;;;;8.30;2.95;;;-0.20;55.50;;;;;;4326784;32;20521;-60
2021/03/31 03:05:06;;;;;;;6.32;2.78;;;-0.20;54.80;;;;;;4351581;32;20428;-61
2021/03/31 03:07:36;;;;;;;6.93;2.75;;;-0.10;54.20;;;;;;4332839;32;20071;-59
2021/03/31 03:10:04;;;;;;;6.32;2.50;;;-0.10;54.30;;;;;;4340422;32;20155;-60
2021/03/31 03:12:30;;;;;;;4.65;2.35;;;0.10;53.60;;;;;;4334071;32;20566;-59
2021/03/31 03:14:56;;;;;;;9.88;2.95;;;0.10;53.30;;;;;;4338037;32;20089;-58
2021/03/31 03:17:22;;;;;;;8.45;2.78;;;0.10;53.20;;;;;;4338633;32;20075;-60
2021/03/31 03:19:49;;;;;;;6.30;3.00;;;0.20;53.20;;;;;;4339321;32;20094;-59
2021/03/31 03:22:15;;;;;;;6.50;2.72;;;0.10;54.00;;;;;;4363395;32;20145;-60
2021/03/31 03:24:46;;;;;;;5.00;2.30;;;0.20;53.80;;;;;;4332473;32;20110;-59
2021/03/31 03:27:14;;;;;;;5.18;2.28;;;0.20;54.10;;;;;;4350185;32;20546;-59
2021/03/31 03:29:48;;;;;;;5.65;2.35;;;0.20;54.10;;;;;;4351025;32;20089;-61
2021/03/31 03:32:15;;;;;;;8.82;2.60;;;0.20;54.10;;;;;;4351369;32;20094;-60
2021/03/31 03:34:42;;;;;;;8.65;2.87;;;0.10;54.50;;;;;;4339116;32;20067;-59
2021/03/31 03:37:09;;;;;;;7.18;2.40;;;0.10;54.50;;;;;;4324972;32;20089;-60
2021/03/31 03:39:35;;;;;;;8.13;2.60;;;0.20;54.90;;;;;;4351552;32;20072;-59
2021/03/31 03:42:02;;;;;;;7.00;2.90;;;0.20;54.80;;;;;;4351325;32;20098;-61
2021/03/31 03:44:30;;;;;;;4.78;2.47;;;0.10;55.10;;;;;;4329899;32;20081;-59
2021/03/31 03:46:57;;;;;;;11.35;3.17;;;0.20;54.70;;;;;;4334136;32;20082;-59
2021/03/31 03:49:23;;;;;;;8.13;3.10;;;0.20;55.30;;;;;;4336515;32;20494;-60
2021/03/31 03:51:49;;;;;;;9.88;3.20;;;0.30;55.00;;;;;;4338217;32;20073;-60
2021/03/31 03:54:15;;;;;;;10.93;3.10;;;0.40;55.40;;;;;;4319839;32;20512;-61
2021/03/31 03:56:49;;;;;;;7.47;3.08;;;0.30;55.50;;;;;;4334269;32;20079;-58
2021/03/31 03:59:23;;;;;;;11.43;3.03;;;0.40;55.80;;;;;;4353913;32;20066;-61
2021/03/31 04:01:51;;;;;;;8.73;3.58;;;0.40;56.10;;;;;;4367534;32;20089;-59
2021/03/31 04:04:21;;;;;;;6.18;3.10;;;0.40;56.50;;;;;;4338267;32;20160;-59
2021/03/31 04:06:47;;;;;;;7.72;2.80;;;0.40;56.70;;;;;;4335103;32;20136;-58
2021/03/31 04:09:14;;;;;;;11.57;3.50;;;0.50;56.70;;;;;;4311362;32;20105;-59
2021/03/31 04:11:43;;;;;;;11.95;3.30;;;0.40;56.70;;;;;;4338245;32;20504;-59
2021/03/31 04:14:09;;;;;;;7.90;3.37;;;0.50;56.90;;;;;;4342655;32;20098;-58
2021/03/31 04:16:35;;;;;;;6.75;2.87;;;0.60;56.80;;;;;;4318266;32;20085;-58
2021/03/31 04:19:05;;;;;;;5.00;2.50;;;0.60;56.80;;;;;;4335881;32;20159;-59
2021/03/31 04:21:35;;;;;;;12.23;2.83;;;0.60;56.80;;;;;;4335969;32;20106;-58
2021/03/31 04:24:02;;;;;;;8.48;2.80;;;0.60;56.90;;;;;;4353317;32;20085;-58
2021/03/31 04:26:30;;;;;;;6.62;2.58;;;0.60;57.10;;;;;;4369914;32;20090;-58
2021/03/31 04:28:57;;;;;;;7.25;2.90;;;0.60;57.00;;;;;;4323508;32;20188;-58
2021/03/31 04:31:23;;;;;;;10.80;3.15;;;0.70;57.20;;;;;;4350250;32;20093;-58
2021/03/31 04:33:50;;;;;;;5.60;2.72;;;0.70;57.10;;;;;;4325837;32;20055;-60
2021/03/31 04:36:18;;;;;;;4.35;2.67;;;0.70;57.20;;;;;;4347955;32;20104;-60
2021/03/31 04:38:48;;;;;;;5.00;2.80;;;0.60;57.30;;;;;;4335767;32;20147;-60
2021/03/31 04:41:15;;;;;;;11.18;3.58;;;0.70;57.30;;;;;;4348500;32;20483;-59
2021/03/31 04:43:41;;;;;;;8.30;2.47;;;0.50;57.40;;;;;;4336643;32;20138;-60
2021/03/31 04:46:10;;;;;;;4.50;2.53;;;0.50;57.80;;;;;;4337858;32;20090;-60
2021/03/31 04:48:40;;;;;;;5.97;2.65;;;0.60;57.50;;;;;;4351246;32;20085;-59
2021/03/31 04:51:07;;;;;;;4.62;2.67;;;0.50;57.40;;;;;;4320428;32;20063;-59
2021/03/31 04:53:33;;;;;;;4.40;2.28;;;0.50;56.90;;;;;;4313373;32;20094;-60
2021/03/31 04:56:00;;;;;;;4.45;2.85;;;0.70;56.50;;;;;;4322334;32;20073;-60
2021/03/31 04:58:26;;;;;;;8.63;2.35;;;0.70;55.80;;;;;;4341557;32;20516;-60
2021/03/31 05:00:53;;;;;;;4.53;2.60;;;0.80;55.50;;;;;;4334196;32;20171;-61
2021/03/31 05:03:19;;;;;;;5.75;2.50;;;1.20;54.70;;;;;;4333019;32;20070;-64
2021/03/31 05:05:45;;;;;;;6.62;2.67;;;2.40;50.10;;;;;;4330686;32;20105;-62
2021/03/31 05:08:11;;;;;;;6.05;3.00;;;2.60;48.80;;;;;;4335555;32;20181;-61
2021/03/31 05:10:38;;;;;;;7.07;3.03;;;2.80;48.30;;;;;;4356163;32;20149;-63
2021/03/31 05:13:04;;;;;;;8.40;2.70;;;2.80;48.70;;;;;;4335805;32;20083;-64
2021/03/31 05:15:30;;;;;;;6.00;2.92;;;2.80;47.50;;;;;;4361662;32;20066;-62
2021/03/31 05:17:57;;;;;;;5.43;2.70;;;2.90;48.10;;;;;;4350149;32;20050;-64
2021/03/31 05:20:23;;;;;;;5.90;2.30;;;3.10;47.50;;;;;;4360250;32;20218;-63
2021/03/31 05:22:49;;;;;;;7.82;2.55;;;3.10;47.00;;;;;;4359697;32;20078;-62
2021/03/31 05:25:16;;;;;;;6.87;2.80;;;3.60;46.40;;;;;;4351579;32;20098;-63
2021/03/31 05:27:42;;;;;;;7.50;2.75;;;3.40;46.00;;;;;;4320221;32;20501;-63
2021/03/31 05:30:10;;;;;;;5.75;2.67;;;3.60;46.00;;;;;;4330354;32;20169;-61
2021/03/31 05:32:37;;;;;;;7.25;3.12;;;3.40;46.00;;;;;;4337434;32;20094;-62
2021/03/31 05:35:05;;;;;;;5.37;2.58;;;3.60;45.40;;;;;;4336514;32;20078;-62
2021/03/31 05:37:32;;;;;;;5.55;2.95;;;4.00;44.80;;;;;;4334595;32;20065;-64
2021/03/31 05:39:58;;;;;;;7.32;2.92;;;3.40;45.00;;;;;;4371779;32;20170;-63
2021/03/31 05:42:24;;;;;;;7.82;2.70;;;3.20;46.10;;;;;;4360380;32;20457;-63
2021/03/31 05:44:50;;;;;;;9.65;3.50;;;3.60;46.10;;;;;;4336406;32;20086;-64
2021/03/31 05:47:38;;;;;;;7.47;2.45;;;3.70;45.40;;;;;;4347664;32;20086;-60
2021/03/31 05:50:06;;;;;;;6.72;2.50;;;3.80;45.00;;;;;;4340040;32;20069;-60
2021/03/31 05:52:32;;;;;;;7.32;2.67;;;4.20;44.50;;;;;;4336630;32;20081;-61
2021/03/31 05:55:01;;;;;;;7.30;2.50;;;4.00;44.00;;;;;;4372689;32;20469;-60
2021/03/31 05:57:32;;;;;;;5.32;2.53;;;4.00;44.20;;;;;;4310193;32;20168;-61
2021/03/31 06:00:00;;;;;;;4.78;2.50;;;3.90;43.50;;;;;;4326975;32;20539;-59
2021/03/31 06:02:27;;;;;;;4.43;2.37;;;4.40;43.60;;;;;;4326786;32;20070;-58
2021/03/31 06:04:54;;;;;;;4.70;2.67;;;4.10;44.10;;;;;;4335373;32;20090;-61
2021/03/31 06:07:20;;;;;;;13.13;3.28;;;4.10;44.40;;;;;;4337047;32;20547;-59
2021/03/31 06:10:05;;;;;;;8.98;3.10;;;3.80;45.00;;;;;;4338982;32;20109;-60
2021/03/31 06:12:32;;;;;;;7.40;3.50;;;3.90;45.10;;;;;;4363654;32;20112;-59
2021/03/31 06:15:13;;;;;;;6.03;2.70;;;4.80;44.00;;;;;;4351480;32;20083;-60
2021/03/31 06:17:45;;;;;;;5.82;2.50;;;3.80;45.60;;;;;;4340682;32;20185;-61
2021/03/31 06:20:12;;;;;;;8.60;2.78;;;3.50;47.00;;;;;;4351748;32;20109;-62
2021/03/31 06:23:24;;;;;;;5.57;3.00;;;3.00;49.50;;;;;;4339108;32;20053;-61
2021/03/31 06:25:29;;;;;;;7.03;2.67;;;3.00;49.90;;;;;;4318313;32;20178;-60
2021/03/31 06:27:59;;;;;;;6.65;2.85;;;3.10;50.40;;;;;;4327968;32;20212;-61
2021/03/31 06:30:28;;;;;;;10.07;3.45;;;3.00;51.10;;;;;;4337726;32;20134;-61
2021/03/31 06:32:54;;;;;;;6.78;3.20;;;3.10;50.90;;;;;;4366407;32;20106;-59
2021/03/31 06:35:24;;;;;;;3.33;2.37;;;2.70;51.00;;;;;;4336427;32;20093;-61
2021/03/31 06:38:03;;;;;;;4.28;2.70;;;2.90;51.60;;;;;;4334814;32;20058;-59
2021/03/31 06:40:47;;;;;;;7.35;3.17;;;3.00;51.80;;;;;;4337193;32;20078;-59
2021/03/31 06:46:03;;;;;;;4.30;2.97;;;3.10;52.10;;;;;;4353711;32;20132;-59
2021/03/31 06:48:31;;;;;;;7.95;3.37;;;3.10;53.10;;;;;;4354454;32;20086;-62
2021/03/31 06:50:58;;;;;;;8.55;3.47;;;3.10;52.60;;;;;;4337815;32;20175;-61
2021/03/31 06:53:31;;;;;;;8.02;3.28;;;3.30;53.70;;;;;;4323354;32;20173;-60
2021/03/31 06:56:05;;;;;;;6.07;3.58;;;3.10;53.40;;;;;;4351315;32;20175;-61
2021/03/31 06:58:32;;;;;;;6.62;3.47;;;3.40;53.90;;;;;;4327490;32;20497;-61
2021/03/31 07:00:59;;;;;;;13.32;3.60;;;3.50;53.80;;;;;;4339306;32;20162;-62
2021/03/31 07:03:25;;;;;;;7.97;3.30;;;3.40;54.00;;;;;;4326930;32;20109;-62
2021/03/31 07:05:51;;;;;;;7.62;3.10;;;3.40;54.60;;;;;;4327149;32;20156;-61
2021/03/31 07:08:18;;;;;;;7.12;3.40;;;3.30;54.70;;;;;;4342673;32;20075;-61
2021/03/31 07:10:53;;;;;;;7.15;3.40;;;3.20;55.30;;;;;;4335058;32;20079;-62
2021/03/31 07:13:26;;;;;;;8.30;3.30;;;3.40;55.60;;;;;;4350906;32;20066;-63
2021/03/31 07:15:53;;;;;;;6.32;3.50;;;3.10;56.00;;;;;;4338511;32;20069;-63
2021/03/31 07:18:24;;;;;;;6.53;3.40;;;3.30;55.90;;;;;;4328488;32;20071;-62
2021/03/31 07:20:50;;;;;;;5.28;3.35;;;3.00;56.80;;;;;;4328350;32;20071;-61
2021/03/31 07:23:18;;;;;;;8.07;3.37;;;3.20;57.70;;;;;;4322960;32;20067;-61
2021/03/31 07:25:45;;;;;;;8.25;3.70;;;3.40;57.80;;;;;;4326718;32;20165;-62
2021/03/31 07:28:15;;;;;;;10.15;3.30;;;3.30;57.90;;;;;;4348991;32;20097;-61
2021/03/31 07:30:41;;;;;;;7.18;3.78;;;3.30;58.00;;;;;;4314553;32;20536;-61
2021/03/31 07:33:27;;;;;;;7.87;3.80;;;3.60;58.00;;;;;;4338235;32;20174;-61
2021/03/31 07:35:53;;;;;;;6.12;3.83;;;3.60;58.70;;;;;;4327844;32;20244;-62
2021/03/31 07:38:23;;;;;;;6.72;4.03;;;3.90;57.30;;;;;;4331715;32;20071;-62
2021/03/31 07:40:51;;;;;;;10.18;4.10;;;3.90;57.50;;;;;;4338415;32;20094;-62
2021/03/31 07:43:37;;;;;;;11.20;4.07;;;3.90;58.10;;;;;;4338167;32;20109;-62
2021/03/31 07:46:09;;;;;;;6.40;3.47;;;3.90;58.50;;;;;;4326721;32;20088;-62
2021/03/31 07:48:37;;;;;;;7.20;3.80;;;3.90;58.90;;;;;;4338802;32;20109;-61
2021/03/31 07:51:20;;;;;;;6.97;4.07;;;4.30;58.70;;;;;;4337627;32;20149;-61
2021/03/31 07:53:49;;;;;;;9.82;4.75;;;4.30;59.10;;;;;;4352956;32;20098;-65
2021/03/31 07:56:25;;;;;;;9.82;4.95;;;4.40;59.00;;;;;;4331851;32;20066;-62
2021/03/31 07:59:04;;;;;;;8.15;4.90;;;4.20;59.10;;;;;;4336905;32;20086;-63
2021/03/31 08:01:35;;;;;;;10.57;5.43;;;4.50;58.60;;;;;;4374665;32;20251;-63
2021/03/31 08:04:02;;;;;;;10.23;6.45;;;4.20;59.30;;;;;;4342390;32;20074;-64
2021/03/31 08:06:33;;;;;;;11.73;6.60;;;4.20;59.50;;;;;;4331357;32;20510;-63
2021/03/31 08:09:18;;;;;;;9.60;5.25;;;4.40;59.30;;;;;;4337236;32;20182;-63
2021/03/31 08:11:47;;;;;;;9.77;5.80;;;4.50;60.40;;;;;;4354000;32;20117;-61
2021/03/31 08:14:19;;;;;;;9.20;5.10;;;4.60;60.00;;;;;;4357662;32;20078;-61
2021/03/31 08:16:49;;;;;;;8.30;4.93;;;4.60;60.00;;;;;;4349822;32;20923;-60
2021/03/31 08:19:25;;;;;;;12.37;6.05;;;4.90;59.00;;;;;;4323946;32;20163;-60
2021/03/31 08:21:53;;;;;;;12.63;5.65;;;4.80;59.50;;;;;;4348151;32;20500;-61
2021/03/31 08:24:42;;;;;;;10.57;5.12;;;4.80;59.30;;;;;;4340298;32;20545;-63
2021/03/31 08:27:09;;;;;;;10.50;5.40;;;4.70;60.10;;;;;;4352464;32;20587;-63
2021/03/31 08:29:35;;;;;;;15.88;5.55;;;5.00;59.70;;;;;;4362062;32;20105;-62
2021/03/31 08:32:04;;;;;;;13.55;5.85;;;5.00;60.00;;;;;;4374456;32;20254;-64
2021/03/31 08:34:31;;;;;;;9.40;5.20;;;4.90;59.60;;;;;;4334564;32;20105;-62
2021/03/31 08:36:58;;;;;;;9.73;5.40;;;5.30;59.80;;;;;;4346431;32;20074;-63
2021/03/31 08:39:25;;;;;;;8.98;5.15;;;5.10;60.10;;;;;;4336726;32;20155;-64
2021/03/31 08:41:55;;;;;;;9.30;5.05;;;5.20;59.60;;;;;;4336280;32;20081;-67
2021/03/31 08:44:35;;;;;;;6.75;4.80;;;5.30;59.40;;;;;;4340256;32;20062;-61
2021/03/31 08:47:10;;;;;;;9.90;5.15;;;5.20;59.60;;;;;;4357187;32;20157;-62
2021/03/31 08:49:37;;;;;;;8.80;4.87;;;5.40;59.20;;;;;;4334191;32;20113;-62
2021/03/31 08:52:06;;;;;;;10.43;5.45;;;5.30;59.80;;;;;;4351676;32;20085;-62
2021/03/31 08:54:48;;;;;;;10.73;5.30;;;5.10;60.20;;;;;;4343582;32;20153;-62
2021/03/31 08:57:19;;;;;;;10.13;6.40;;;5.20;60.10;;;;;;4359552;32;20078;-63
2021/03/31 08:59:50;;;;;;;8.77;4.95;;;5.40;59.50;;;;;;4364618;32;20097;-64
2021/03/31 09:03:04;;;;;;;10.70;5.57;;;5.50;58.90;;;;;;4336855;32;20065;-65
2021/03/31 09:05:25;;;;;;;9.65;5.68;;;5.30;59.50;;;;;;4346183;32;20467;-63
2021/03/31 09:07:59;;;;;;;11.07;5.53;;;5.40;59.60;;;;;;4357892;32;20479;-62
2021/03/31 09:10:26;;;;;;;11.35;5.50;;;5.50;59.20;;;;;;4340112;32;20532;-63
2021/03/31 09:12:52;;;;;;;7.40;4.65;;;5.30;59.70;;;;;;4335499;32;20139;-63
2021/03/31 09:15:19;;;;;;;8.10;4.97;;;5.40;60.20;;;;;;4351185;32;20058;-64
2021/03/31 09:17:47;;;;;;;13.02;5.80;;;5.60;59.10;;;;;;4352745;32;20192;-64
2021/03/31 09:20:17;;;;;;;8.75;5.85;;;5.50;59.30;;;;;;4353642;32;20090;-63
2021/03/31 09:22:44;;;;;;;11.52;5.35;;;5.50;59.50;;;;;;4350873;32;20481;-63
2021/03/31 09:25:12;;;;;;;8.98;5.18;;;5.50;59.80;;;;;;4342616;32;20202;-61
2021/03/31 09:27:38;;;;;;;11.60;5.12;;;5.50;60.00;;;;;;4354403;32;20094;-62
2021/03/31 09:30:08;;;;;;;12.23;5.40;;;5.50;59.90;;;;;;4356583;32;20069;-63
2021/03/31 09:32:35;;;;;;;9.20;5.60;;;5.50;59.80;;;;;;4355396;32;20069;-62
2021/03/31 09:35:13;;;;;;;8.50;5.22;;;5.50;59.50;;;;;;4315543;32;20188;-61
2021/03/31 09:37:51;;;;;;;8.48;4.62;;;5.60;59.20;;;;;;4347397;32;20509;-59
2021/03/31 09:40:22;;;;;;;10.65;5.18;;;5.50;58.10;;;;;;4358225;32;20541;-61
2021/03/31 09:42:57;;;;;;;10.70;4.93;;;5.70;58.50;;;;;;4365469;32;20090;-60
2021/03/31 09:45:29;;;;;;;10.88;5.07;;;5.80;59.30;;;;;;4343648;32;20094;-62
2021/03/31 09:47:57;;;;;;;7.80;4.55;;;5.60;58.30;;;;;;4341861;32;20047;-62
2021/03/31 09:50:24;;;;;;;9.45;4.75;;;5.80;58.30;;;;;;4347035;32;20198;-61
2021/03/31 09:53:01;;;;;;;6.82;4.10;;;5.70;57.90;;;;;;4333861;32;20065;-61
2021/03/31 09:55:27;;;;;;;9.10;4.53;;;5.90;57.50;;;;;;4348165;32;20135;-61
2021/03/31 09:57:54;;;;;;;8.70;3.97;;;6.10;57.10;;;;;;4343951;32;20159;-72
2021/03/31 10:00:22;;;;;;;7.15;3.55;;;6.00;56.70;;;;;;4347379;32;20573;-59
2021/03/31 10:02:49;;;;;;;7.60;3.60;;;6.10;56.90;;;;;;4337843;32;20079;-60
2021/03/31 10:05:20;;;;;;;7.90;3.58;;;5.80;57.40;;;;;;4343751;32;20225;-57
2021/03/31 10:08:06;;;;;;;7.30;3.67;;;5.80;57.10;;;;;;4344648;32;20169;-60
2021/03/31 10:10:46;;;;;;;5.45;3.60;;;5.90;57.00;;;;;;4337075;32;20186;-59
2021/03/31 10:13:13;;;;;;;5.25;3.42;;;5.90;56.10;;;;;;4357686;32;20070;-58
2021/03/31 10:15:46;;;;;;;5.80;3.47;;;6.20;55.70;;;;;;4348641;32;20082;-60
2021/03/31 10:18:12;;;;;;;10.80;3.87;;;6.10;56.20;;;;;;4330398;32;20122;-59
2021/03/31 10:20:45;;;;;;;9.23;4.30;;;6.10;56.00;;;;;;4342438;32;20062;-63
2021/03/31 10:23:33;;;;;;;7.20;4.00;;;6.40;55.50;;;;;;4346847;32;20097;-60
2021/03/31 10:26:18;;;;;;;8.45;4.00;;;6.50;55.10;;;;;;4344262;32;20094;-62
2021/03/31 10:28:45;;;;;;;8.07;4.57;;;6.40;54.50;;;;;;4353043;32;20540;-62
2021/03/31 10:31:44;;;;;;;8.65;4.18;;;6.40;56.00;;;;;;4354644;32;20585;-61
2021/03/31 10:34:10;;;;;;;10.02;4.03;;;6.40;55.40;;;;;;4356132;32;20505;-61
2021/03/31 10:39:54;;;;;;;6.50;3.80;;;6.50;55.80;;;;;;4357154;32;20080;-62
2021/03/31 10:48:32;;;;;;;11.00;4.40;;;6.20;57.30;;;;;;4363919;32;20076;-61
2021/03/31 10:54:02;;;;;;;7.87;3.25;;;6.20;56.40;;;;;;4336177;32;20113;-62
2021/03/31 10:56:30;;;;;;;6.28;3.60;;;6.30;57.50;;;;;;4352776;32;20165;-59
2021/03/31 10:58:59;;;;;;;7.10;3.72;;;6.10;57.10;;;;;;4357490;32;20156;-58
2021/03/31 11:01:25;;;;;;;7.68;3.65;;;6.20;57.30;;;;;;4348768;32;20141;-59
2021/03/31 11:03:51;;;;;;;7.40;3.95;;;6.20;57.50;;;;;;4329166;32;20105;-59
2021/03/31 11:06:17;;;;;;;6.53;3.80;;;5.90;58.30;;;;;;4358852;32;20081;-60
2021/03/31 11:08:43;;;;;;;9.40;3.62;;;5.90;58.10;;;;;;4348809;32;20089;-59
2021/03/31 11:11:10;;;;;;;8.30;3.28;;;6.00;58.60;;;;;;4353917;32;20161;-59
2021/03/31 11:13:37;;;;;;;6.95;3.20;;;5.70;59.60;;;;;;4348607;32;20169;-59
2021/03/31 11:16:08;;;;;;;9.00;3.47;;;6.00;58.80;;;;;;4332289;32;20082;-57
2021/03/31 11:26:38;;;;;;;9.13;4.00;;;5.80;59.60;;;;;;4352543;32;20148;-58
2021/03/31 11:29:05;;;;;;;8.15;3.37;;;5.90;59.70;;;;;;4350317;32;20070;-62
2021/03/31 11:31:31;;;;;;;5.78;3.37;;;5.80;60.40;;;;;;4371012;32;20091;-66
2021/03/31 11:33:57;;;;;;;8.77;3.80;;;5.80;60.80;;;;;;4348233;32;20068;-59
2021/03/31 11:36:23;;;;;;;8.90;3.83;;;5.80;60.90;;;;;;4345679;32;20070;-58
2021/03/31 11:38:50;;;;;;;9.52;3.97;;;5.80;61.20;;;;;;4346823;32;20059;-62
2021/03/31 11:41:16;;;;;;;7.03;3.30;;;5.70;61.50;;;;;;4341729;32;20457;-61
2021/03/31 11:43:42;;;;;;;9.93;4.28;;;5.80;61.60;;;;;;4368651;32;20183;-61
2021/03/31 11:46:08;;;;;;;9.13;4.20;;;5.70;61.60;;;;;;4355846;32;20070;-59
2021/03/31 11:48:35;;;;;;;10.75;3.50;;;5.70;62.30;;;;;;4332608;32;20098;-64
2021/03/31 11:51:01;;;;;;;6.87;4.18;;;5.50;62.40;;;;;;4359867;32;20074;-62
2021/03/31 11:53:30;;;;;;;12.05;5.05;;;5.70;62.90;;;;;;4371699;32;20066;-61
2021/03/31 11:55:57;;;;;;;8.32;3.97;;;5.80;62.60;;;;;;4345155;32;20159;-64
2021/03/31 11:58:23;;;;;;;11.50;4.00;;;5.70;63.10;;;;;;4356979;32;20159;-61
2021/03/31 12:00:50;;;;;;;8.18;3.78;;;5.70;63.10;;;;;;4361034;32;20170;-59
2021/03/31 12:03:18;;;;;;;5.62;3.67;;;5.70;63.30;;;;;;4363523;32;20078;-61
2021/03/31 12:05:44;;;;;;;9.75;3.83;;;5.50;63.40;;;;;;4339693;32;20089;-62
2021/03/31 12:08:10;;;;;;;7.12;3.62;;;5.50;63.50;;;;;;4359290;32;20202;-66
2021/03/31 12:10:36;;;;;;;7.60;4.47;;;5.60;63.90;;;;;;4345845;32;20118;-61
2021/03/31 12:13:02;;;;;;;9.48;4.12;;;5.30;63.80;;;;;;4347836;32;20104;-61
2021/03/31 12:15:29;;;;;;;8.57;4.60;;;5.40;63.70;;;;;;4371245;32;20089;-61
2021/03/31 12:17:55;;;;;;;8.35;4.25;;;5.40;63.80;;;;;;4341002;32;20575;-63
2021/03/31 12:20:21;;;;;;;7.50;3.58;;;5.40;63.50;;;;;;4360051;32;20086;-61
2021/03/31 12:22:47;;;;;;;9.05;3.60;;;5.50;64.30;;;;;;4346943;32;20074;-62
2021/03/31 12:25:14;;;;;;;9.32;4.10;;;5.50;64.30;;;;;;4366932;32;20082;-63
2021/03/31 12:27:41;;;;;;;7.75;4.03;;;5.60;63.90;;;;;;4337468;32;20402;-64
2021/03/31 12:30:10;;;;;;;8.43;3.70;;;5.40;64.20;;;;;;4362355;32;20182;-64
2021/03/31 12:32:37;;;;;;;7.28;4.00;;;5.50;64.30;;;;;;4372075;32;20082;-64
2021/03/31 12:35:04;;;;;;;6.47;3.65;;;5.40;64.10;;;;;;4333980;32;20299;-61
2021/03/31 12:37:30;;;;;;;4.50;2.90;;;5.40;63.80;;;;;;4332351;32;20133;-61
2021/03/31 12:39:56;;;;;;;7.95;4.03;;;5.40;64.00;;;;;;4343490;32;20099;-61
2021/03/31 12:42:23;;;;;;;10.63;4.10;;;5.30;64.20;;;;;;4353994;32;21398;-61
2021/03/31 12:44:49;;;;;;;7.00;3.22;;;5.20;64.20;;;;;;4332428;32;20144;-62
2021/03/31 12:47:19;;;;;;;9.25;3.47;;;5.20;64.40;;;;;;4342935;32;20568;-66
2021/03/31 12:49:48;;;;;;;7.62;3.20;;;5.40;64.20;;;;;;4353585;32;20082;-62
2021/03/31 12:52:16;;;;;;;8.45;3.50;;;5.30;64.40;;;;;;4356225;32;20081;-65
2021/03/31 12:57:09;;;;;;;6.20;3.28;;;5.30;64.60;;;;;;4331876;32;20099;-63
2021/03/31 12:59:36;;;;;;;7.40;4.47;;;5.30;64.60;;;;;;4357494;32;20126;-63
2021/03/31 13:02:02;;;;;;;8.07;4.10;;;5.10;65.00;;;;;;4361896;32;20098;-61
2021/03/31 13:04:29;;;;;;;5.03;2.90;;;5.20;65.40;;;;;;4344063;32;20083;-62
2021/03/31 13:06:55;;;;;;;6.20;3.25;;;5.10;65.80;;;;;;4319487;32;20090;-64
2021/03/31 13:09:22;;;;;;;6.40;3.25;;;5.10;66.40;;;;;;4320643;32;20121;-62
2021/03/31 13:11:50;;;;;;;8.38;3.75;;;5.10;66.70;;;;;;4356316;32;20555;-62
2021/03/31 13:17:01;;;;;;;6.65;3.92;;;5.00;67.10;;;;;;4341651;32;20485;-62
2021/03/31 13:22:57;;;;;;;6.22;3.20;;;5.10;67.30;;;;;;4345245;32;20185;-60
2021/03/31 13:25:08;;;;;;;7.45;3.65;;;5.00;68.10;;;;;;4356644;32;20063;-59
2021/03/31 13:33:06;;;;;;;7.25;3.40;;;4.90;69.50;;;;;;4355902;32;20062;-59
2021/03/31 13:40:31;;;;;;;6.70;3.25;;;4.80;71.00;;;;;;4347556;32;20078;-59
2021/03/31 13:42:57;;;;;;;6.85;3.42;;;4.80;71.10;;;;;;4320169;32;20117;-59
2021/03/31 13:45:25;;;;;;;4.75;2.60;;;4.80;71.80;;;;;;4318832;32;20081;-64
2021/03/31 13:47:56;;;;;;;3.95;2.67;;;4.80;72.10;;;;;;4331278;32;20109;-63
2021/03/31 13:50:23;;;;;;;6.75;3.55;;;4.70;72.60;;;;;;4343367;32;20066;-62